sensor_id;sensor_type;location;lat;lon;timestamp;pressure;altitude;pressure_sealevel;temperature;humidity
32237;BME280;18726;44.732;10.550;2022-08-18T00:01:10;100663.13;;;22.10;100.00
32237;BME280;18726;44.732;10.550;2022-08-18T00:04:16;100659.56;;;22.09;100.00
32237;BME280;18726;44.732;10.550;2022-08-18T00:07:23;100662.28;;;22.13;100.00
32237;BME280;18726;44.732;10.550;2022-08-18T00:10:27;100649.72;;;22.08;100.00
32237;BME280;18726;44.732;10.550;2022-08-18T00:13:31;100637.19;;;22.00;100.00
32237;BME280;18726;44.732;10.550;2022-08-18T00:16:35;100635.22;;;21.81;100.00
32237;BME280;18726;44.732;10.550;2022-08-18T00:19:39;100626.31;;;21.70;100.00
32237;BME280;18726;44.732;10.550;2022-08-18T00:22:43;100626.53;;;21.59;100.00
32237;BME280;18726;44.732;10.550;2022-08-18T00:25:47;100619.50;;;21.54;100.00
32237;BME280;18726;44.732;10.550;2022-08-18T00:28:52;100615.91;;;21.58;100.00
32237;BME280;18726;44.732;10.550;2022-08-18T00:31:56;100614.34;;;21.56;100.00
32237;BME280;18726;44.732;10.550;2022-08-18T00:35:19;100617.53;;;21.55;100.00
32237;BME280;18726;44.732;10.550;2022-08-18T00:38:23;100621.78;;;21.60;100.00
32237;BME280;18726;44.732;10.550;2022-08-18T00:41:26;100629.16;;;21.66;100.00
32237;BME280;18726;44.732;10.550;2022-08-18T00:44:30;100636.75;;;21.82;100.00
32237;BME280;18726;44.732;10.550;2022-08-18T00:47:34;100641.16;;;21.99;100.00
32237;BME280;18726;44.732;10.550;2022-08-18T00:50:45;100640.91;;;22.13;100.00
32237;BME280;18726;44.732;10.550;2022-08-18T00:54:02;100637.13;;;22.23;100.00
32237;BME280;18726;44.732;10.550;2022-08-18T00:57:07;100641.41;;;22.28;100.00
32237;BME280;18726;44.732;10.550;2022-08-18T01:00:11;100634.94;;;22.35;100.00
32237;BME280;18726;44.732;10.550;2022-08-18T01:03:18;100621.44;;;22.37;100.00
32237;BME280;18726;44.732;10.550;2022-08-18T01:06:27;100615.44;;;22.22;100.00
32237;BME280;18726;44.732;10.550;2022-08-18T01:09:34;100611.47;;;22.03;100.00
32237;BME280;18726;44.732;10.550;2022-08-18T01:12:38;100603.28;;;21.96;100.00
32237;BME280;18726;44.732;10.550;2022-08-18T01:15:42;100604.72;;;22.04;100.00
32237;BME280;18726;44.732;10.550;2022-08-18T01:18:46;100581.25;;;22.12;100.00
32237;BME280;18726;44.732;10.550;2022-08-18T01:22:21;100585.00;;;22.22;100.00
32237;BME280;18726;44.732;10.550;2022-08-18T01:25:27;100617.75;;;22.23;100.00
32237;BME280;18726;44.732;10.550;2022-08-18T01:28:49;100634.13;;;22.18;100.00
32237;BME280;18726;44.732;10.550;2022-08-18T01:31:54;100639.06;;;22.27;100.00
32237;BME280;18726;44.732;10.550;2022-08-18T01:34:58;100650.91;;;22.27;100.00
32237;BME280;18726;44.732;10.550;2022-08-18T01:38:02;100669.91;;;22.25;100.00
32237;BME280;18726;44.732;10.550;2022-08-18T01:41:06;100669.91;;;22.25;100.00
32237;BME280;18726;44.732;10.550;2022-08-18T01:44:10;100694.75;;;22.29;100.00
32237;BME280;18726;44.732;10.550;2022-08-18T01:47:14;100714.97;;;22.26;100.00
32237;BME280;18726;44.732;10.550;2022-08-18T01:50:19;100729.34;;;22.20;100.00
32237;BME280;18726;44.732;10.550;2022-08-18T01:53:23;100727.78;;;22.19;100.00
32237;BME280;18726;44.732;10.550;2022-08-18T01:56:27;100711.22;;;22.16;100.00
32237;BME280;18726;44.732;10.550;2022-08-18T01:59:30;100727.63;;;22.27;100.00
32237;BME280;18726;44.732;10.550;2022-08-18T02:02:33;100747.28;;;22.32;100.00
32237;BME280;18726;44.732;10.550;2022-08-18T02:05:42;100804.63;;;22.32;100.00
32237;BME280;18726;44.732;10.550;2022-08-18T02:08:47;100850.16;;;22.27;100.00
32237;BME280;18726;44.732;10.550;2022-08-18T02:11:51;100883.22;;;22.14;100.00
32237;BME280;18726;44.732;10.550;2022-08-18T02:14:54;100903.56;;;22.01;100.00
32237;BME280;18726;44.732;10.550;2022-08-18T02:18:00;100916.34;;;21.91;100.00
32237;BME280;18726;44.732;10.550;2022-08-18T04:24:51;100513.31;;;20.35;100.00
32237;BME280;18726;44.732;10.550;2022-08-18T04:27:55;100511.28;;;20.43;100.00
32237;BME280;18726;44.732;10.550;2022-08-18T04:31:07;100547.38;;;20.52;100.00
32237;BME280;18726;44.732;10.550;2022-08-18T04:34:11;100538.63;;;20.57;100.00
32237;BME280;18726;44.732;10.550;2022-08-18T04:37:16;100536.97;;;20.63;100.00
32237;BME280;18726;44.732;10.550;2022-08-18T04:40:20;100527.31;;;20.75;100.00
32237;BME280;18726;44.732;10.550;2022-08-18T04:43:24;100533.38;;;20.89;100.00
32237;BME280;18726;44.732;10.550;2022-08-18T04:46:29;100542.50;;;21.10;100.00
32237;BME280;18726;44.732;10.550;2022-08-18T04:49:34;100524.50;;;21.25;100.00
32237;BME280;18726;44.732;10.550;2022-08-18T04:52:38;100513.03;;;21.27;100.00
32237;BME280;18726;44.732;10.550;2022-08-18T04:56:00;100513.19;;;21.16;100.00
32237;BME280;18726;44.732;10.550;2022-08-18T04:59:11;100512.41;;;21.15;100.00
32237;BME280;18726;44.732;10.550;2022-08-18T05:02:17;100523.41;;;21.19;100.00
32237;BME280;18726;44.732;10.550;2022-08-18T05:05:21;100544.97;;;21.28;100.00
32237;BME280;18726;44.732;10.550;2022-08-18T05:08:25;100550.03;;;21.33;100.00
32237;BME280;18726;44.732;10.550;2022-08-18T05:11:31;100560.31;;;21.32;100.00
32237;BME280;18726;44.732;10.550;2022-08-18T05:14:35;100563.06;;;21.32;100.00
32237;BME280;18726;44.732;10.550;2022-08-18T05:17:40;100566.53;;;21.36;100.00
32237;BME280;18726;44.732;10.550;2022-08-18T05:20:43;100585.00;;;21.39;100.00
32237;BME280;18726;44.732;10.550;2022-08-18T05:23:47;100587.41;;;21.37;100.00
32237;BME280;18726;44.732;10.550;2022-08-18T05:26:52;100608.69;;;21.40;100.00
32237;BME280;18726;44.732;10.550;2022-08-18T05:29:56;100603.16;;;21.40;100.00
32237;BME280;18726;44.732;10.550;2022-08-18T05:33:00;100596.31;;;21.48;100.00
32237;BME280;18726;44.732;10.550;2022-08-18T05:42:37;100622.56;;;22.00;100.00
32237;BME280;18726;44.732;10.550;2022-08-18T05:45:42;100631.34;;;22.18;100.00
32237;BME280;18726;44.732;10.550;2022-08-18T05:48:46;100632.59;;;22.33;100.00
32237;BME280;18726;44.732;10.550;2022-08-18T05:51:53;100630.03;;;22.42;100.00
32237;BME280;18726;44.732;10.550;2022-08-18T05:55:05;100640.53;;;22.51;100.00
32237;BME280;18726;44.732;10.550;2022-08-18T05:58:54;100669.78;;;22.52;100.00
32237;BME280;18726;44.732;10.550;2022-08-18T06:05:14;100658.72;;;22.52;100.00
32237;BME280;18726;44.732;10.550;2022-08-18T06:08:32;100677.38;;;22.48;100.00
32237;BME280;18726;44.732;10.550;2022-08-18T06:11:39;100750.69;;;22.40;100.00
32237;BME280;18726;44.732;10.550;2022-08-18T06:14:42;100802.63;;;22.32;100.00
32237;BME280;18726;44.732;10.550;2022-08-18T06:27:47;100723.09;;;21.93;100.00
32237;BME280;18726;44.732;10.550;2022-08-18T06:40:20;100731.59;;;22.65;100.00
32237;BME280;18726;44.732;10.550;2022-08-18T06:43:25;100719.66;;;22.68;100.00
32237;BME280;18726;44.732;10.550;2022-08-18T06:53:10;100681.31;;;22.67;100.00
32237;BME280;18726;44.732;10.550;2022-08-18T06:59:32;100671.50;;;22.62;100.00
32237;BME280;18726;44.732;10.550;2022-08-18T07:09:23;100683.75;;;22.45;100.00
32237;BME280;18726;44.732;10.550;2022-08-18T07:12:28;100670.53;;;22.52;100.00
32237;BME280;18726;44.732;10.550;2022-08-18T07:15:32;100699.34;;;22.55;100.00
32237;BME280;18726;44.732;10.550;2022-08-18T07:18:36;100644.16;;;22.48;100.00
32237;BME280;18726;44.732;10.550;2022-08-18T07:21:40;100564.69;;;22.29;100.00
32237;BME280;18726;44.732;10.550;2022-08-18T07:24:49;100571.78;;;22.30;100.00
32237;BME280;18726;44.732;10.550;2022-08-18T07:27:56;100588.03;;;22.28;100.00
32237;BME280;18726;44.732;10.550;2022-08-18T07:31:41;100518.47;;;22.09;100.00
32237;BME280;18726;44.732;10.550;2022-08-18T07:34:49;100549.34;;;21.88;100.00
32237;BME280;18726;44.732;10.550;2022-08-18T07:38:00;100609.16;;;21.98;100.00
32237;BME280;18726;44.732;10.550;2022-08-18T07:41:16;100625.41;;;21.96;100.00
32237;BME280;18726;44.732;10.550;2022-08-18T07:44:24;100625.84;;;21.95;100.00
32237;BME280;18726;44.732;10.550;2022-08-18T07:47:50;100635.63;;;21.99;100.00
32237;BME280;18726;44.732;10.550;2022-08-18T07:51:21;100637.94;;;22.04;100.00
32237;BME280;18726;44.732;10.550;2022-08-18T07:54:46;100663.13;;;22.10;100.00
32237;BME280;18726;44.732;10.550;2022-08-18T07:58:05;100634.19;;;22.14;100.00
32237;BME280;18726;44.732;10.550;2022-08-18T08:01:22;100583.03;;;22.22;100.00
32237;BME280;18726;44.732;10.550;2022-08-18T08:04:43;100566.31;;;22.26;100.00
32237;BME280;18726;44.732;10.550;2022-08-18T08:07:58;100535.44;;;22.28;100.00
32237;BME280;18726;44.732;10.550;2022-08-18T08:14:41;100462.56;;;21.98;100.00
32237;BME280;18726;44.732;10.550;2022-08-18T08:21:08;100469.84;;;21.92;100.00
32237;BME280;18726;44.732;10.550;2022-08-18T08:24:19;100501.38;;;21.95;100.00
32237;BME280;18726;44.732;10.550;2022-08-18T08:27:43;100530.50;;;21.99;100.00
32237;BME280;18726;44.732;10.550;2022-08-18T08:31:10;100544.38;;;21.79;100.00
32237;BME280;18726;44.732;10.550;2022-08-18T08:37:45;100550.94;;;21.66;100.00
32237;BME280;18726;44.732;10.550;2022-08-18T08:41:00;100551.03;;;21.62;100.00
32237;BME280;18726;44.732;10.550;2022-08-18T08:47:34;100566.97;;;21.54;100.00
32237;BME280;18726;44.732;10.550;2022-08-18T08:53:55;100605.09;;;21.43;100.00
32237;BME280;18726;44.732;10.550;2022-08-18T08:57:01;100604.19;;;21.50;100.00
32237;BME280;18726;44.732;10.550;2022-08-18T09:00:09;100542.16;;;21.31;100.00
32237;BME280;18726;44.732;10.550;2022-08-18T09:23:06;100829.28;;;20.88;100.00
32237;BME280;18726;44.732;10.550;2022-08-18T09:32:51;100560.44;;;19.57;100.00
32237;BME280;18726;44.732;10.550;2022-08-18T09:36:19;100416.91;;;19.40;100.00
32237;BME280;18726;44.732;10.550;2022-08-18T09:39:33;100326.38;;;19.42;100.00
32237;BME280;18726;44.732;10.550;2022-08-18T09:43:14;100250.75;;;19.20;100.00
32237;BME280;18726;44.732;10.550;2022-08-18T09:49:55;100231.84;;;19.22;100.00
32237;BME280;18726;44.732;10.550;2022-08-18T09:54:05;100275.09;;;19.25;100.00
32237;BME280;18726;44.732;10.550;2022-08-18T10:03:17;100496.31;;;19.83;100.00
32237;BME280;18726;44.732;10.550;2022-08-18T10:06:26;100520.13;;;20.00;100.00
32237;BME280;18726;44.732;10.550;2022-08-18T10:09:33;100523.53;;;20.11;100.00
32237;BME280;18726;44.732;10.550;2022-08-18T10:16:30;100505.03;;;20.39;100.00
32237;BME280;18726;44.732;10.550;2022-08-18T10:19:52;100530.47;;;20.50;100.00
32237;BME280;18726;44.732;10.550;2022-08-18T10:22:59;100529.84;;;20.66;100.00
32237;BME280;18726;44.732;10.550;2022-08-18T10:26:03;100540.94;;;20.62;100.00
32237;BME280;18726;44.732;10.550;2022-08-18T10:32:40;100569.81;;;20.81;100.00
32237;BME280;18726;44.732;10.550;2022-08-18T10:35:58;100560.16;;;20.93;100.00
32237;BME280;18726;44.732;10.550;2022-08-18T10:42:52;100535.06;;;21.30;100.00
32237;BME280;18726;44.732;10.550;2022-08-18T10:46:02;100496.09;;;21.44;100.00
32237;BME280;18726;44.732;10.550;2022-08-18T10:56:43;100182.63;;;22.61;100.00
32237;BME280;18726;44.732;10.550;2022-08-18T11:00:01;100151.94;;;22.43;100.00
32237;BME280;18726;44.732;10.550;2022-08-18T11:03:39;100266.78;;;22.80;100.00
32237;BME280;18726;44.732;10.550;2022-08-18T11:06:48;100423.03;;;23.53;100.00
32237;BME280;18726;44.732;10.550;2022-08-18T11:09:55;100379.97;;;23.74;100.00
32237;BME280;18726;44.732;10.550;2022-08-18T11:13:18;100352.41;;;24.30;100.00
32237;BME280;18726;44.732;10.550;2022-08-18T11:19:38;100320.97;;;25.11;100.00
32237;BME280;18726;44.732;10.550;2022-08-18T11:22:53;100328.16;;;25.62;100.00
32237;BME280;18726;44.732;10.550;2022-08-18T11:26:12;100345.88;;;25.86;100.00
32237;BME280;18726;44.732;10.550;2022-08-18T11:32:42;100352.63;;;25.76;100.00
32237;BME280;18726;44.732;10.550;2022-08-18T11:35:49;100390.47;;;25.64;100.00
32237;BME280;18726;44.732;10.550;2022-08-18T11:38:55;100408.28;;;25.76;100.00
32237;BME280;18726;44.732;10.550;2022-08-18T11:41:59;100410.97;;;25.57;100.00
32237;BME280;18726;44.732;10.550;2022-08-18T11:45:16;100410.56;;;26.08;100.00
32237;BME280;18726;44.732;10.550;2022-08-18T11:51:33;100430.28;;;26.23;100.00
32237;BME280;18726;44.732;10.550;2022-08-18T11:54:46;100440.75;;;26.10;100.00
32237;BME280;18726;44.732;10.550;2022-08-18T11:57:53;100447.19;;;26.38;100.00
32237;BME280;18726;44.732;10.550;2022-08-18T12:00:57;100451.22;;;26.37;100.00
32237;BME280;18726;44.732;10.550;2022-08-18T12:04:30;100471.94;;;26.36;100.00
32237;BME280;18726;44.732;10.550;2022-08-18T12:07:40;100475.28;;;26.71;100.00
32237;BME280;18726;44.732;10.550;2022-08-18T12:10:45;100470.47;;;26.89;100.00
32237;BME280;18726;44.732;10.550;2022-08-18T12:13:58;100488.03;;;27.08;100.00
32237;BME280;18726;44.732;10.550;2022-08-18T12:17:06;100487.09;;;27.30;100.00
32237;BME280;18726;44.732;10.550;2022-08-18T12:20:11;100512.19;;;27.02;100.00
32237;BME280;18726;44.732;10.550;2022-08-18T12:23:16;100515.16;;;27.08;100.00
32237;BME280;18726;44.732;10.550;2022-08-18T12:26:19;100511.09;;;27.18;100.00
32237;BME280;18726;44.732;10.550;2022-08-18T12:29:24;100531.56;;;27.33;100.00
32237;BME280;18726;44.732;10.550;2022-08-18T12:32:31;100531.09;;;27.26;100.00
32237;BME280;18726;44.732;10.550;2022-08-18T12:35:35;100539.00;;;27.27;100.00
32237;BME280;18726;44.732;10.550;2022-08-18T12:38:40;100550.47;;;27.20;100.00
32237;BME280;18726;44.732;10.550;2022-08-18T12:41:46;100553.28;;;27.11;100.00
32237;BME280;18726;44.732;10.550;2022-08-18T12:44:50;100553.66;;;26.82;100.00
32237;BME280;18726;44.732;10.550;2022-08-18T12:47:56;100549.94;;;26.94;100.00
32237;BME280;18726;44.732;10.550;2022-08-18T12:51:00;100551.78;;;26.88;100.00
32237;BME280;18726;44.732;10.550;2022-08-18T12:54:07;100555.16;;;26.65;100.00
32237;BME280;18726;44.732;10.550;2022-08-18T12:57:27;100539.97;;;26.26;100.00
32237;BME280;18726;44.732;10.550;2022-08-18T13:00:34;100540.19;;;26.09;100.00
32237;BME280;18726;44.732;10.550;2022-08-18T13:03:38;100544.41;;;26.14;100.00
32237;BME280;18726;44.732;10.550;2022-08-18T13:06:51;100543.84;;;26.28;100.00
32237;BME280;18726;44.732;10.550;2022-08-18T13:09:57;100534.78;;;26.37;100.00
32237;BME280;18726;44.732;10.550;2022-08-18T13:13:01;100541.03;;;26.50;100.00
32237;BME280;18726;44.732;10.550;2022-08-18T13:16:08;100547.25;;;26.63;100.00
32237;BME280;18726;44.732;10.550;2022-08-18T13:19:12;100539.97;;;26.66;100.00
32237;BME280;18726;44.732;10.550;2022-08-18T13:22:16;100539.75;;;26.42;100.00
32237;BME280;18726;44.732;10.550;2022-08-18T13:25:20;100532.81;;;26.46;100.00
32237;BME280;18726;44.732;10.550;2022-08-18T13:28:24;100543.72;;;26.72;100.00
32237;BME280;18726;44.732;10.550;2022-08-18T13:31:28;100541.34;;;26.52;100.00
32237;BME280;18726;44.732;10.550;2022-08-18T13:34:32;100532.41;;;26.66;100.00
32237;BME280;18726;44.732;10.550;2022-08-18T13:37:35;100532.78;;;26.96;100.00
32237;BME280;18726;44.732;10.550;2022-08-18T13:40:40;100530.25;;;26.88;100.00
32237;BME280;18726;44.732;10.550;2022-08-18T13:43:44;100530.59;;;26.81;100.00
32237;BME280;18726;44.732;10.550;2022-08-18T13:46:49;100522.84;;;26.95;100.00
32237;BME280;18726;44.732;10.550;2022-08-18T13:49:54;100508.91;;;26.95;100.00
32237;BME280;18726;44.732;10.550;2022-08-18T13:52:58;100512.94;;;26.94;100.00
32237;BME280;18726;44.732;10.550;2022-08-18T13:56:05;100524.66;;;26.70;100.00
32237;BME280;18726;44.732;10.550;2022-08-18T13:59:09;100538.91;;;26.72;100.00
32237;BME280;18726;44.732;10.550;2022-08-18T14:02:12;100529.03;;;26.89;100.00
32237;BME280;18726;44.732;10.550;2022-08-18T14:05:16;100540.22;;;26.99;100.00
32237;BME280;18726;44.732;10.550;2022-08-18T14:08:20;100538.63;;;26.88;100.00
32237;BME280;18726;44.732;10.550;2022-08-18T14:11:28;100522.84;;;26.95;100.00
32237;BME280;18726;44.732;10.550;2022-08-18T14:14:33;100544.59;;;27.09;100.00
32237;BME280;18726;44.732;10.550;2022-08-18T14:17:36;100559.47;;;27.33;100.00
32237;BME280;18726;44.732;10.550;2022-08-18T14:20:40;100565.69;;;27.37;100.00
32237;BME280;18726;44.732;10.550;2022-08-18T14:24:03;100580.72;;;27.67;100.00
32237;BME280;18726;44.732;10.550;2022-08-18T14:27:31;100581.63;;;28.01;100.00
32237;BME280;18726;44.732;10.550;2022-08-18T14:30:36;100573.66;;;28.17;100.00
32237;BME280;18726;44.732;10.550;2022-08-18T14:33:42;100570.91;;;27.99;100.00
32237;BME280;18726;44.732;10.550;2022-08-18T14:36:47;100572.72;;;28.11;100.00
32237;BME280;18726;44.732;10.550;2022-08-18T14:39:51;100579.84;;;28.12;100.00
32237;BME280;18726;44.732;10.550;2022-08-18T14:42:56;100578.75;;;28.19;100.00
32237;BME280;18726;44.732;10.550;2022-08-18T14:46:01;100578.31;;;28.30;100.00
32237;BME280;18726;44.732;10.550;2022-08-18T14:49:04;100578.94;;;28.15;100.00
32237;BME280;18726;44.732;10.550;2022-08-18T14:52:09;100582.34;;;28.19;100.00
32237;BME280;18726;44.732;10.550;2022-08-18T14:55:15;100579.53;;;28.19;100.00
32237;BME280;18726;44.732;10.550;2022-08-18T14:58:20;100577.34;;;28.33;100.00
32237;BME280;18726;44.732;10.550;2022-08-18T15:01:24;100575.78;;;28.32;100.00
32237;BME280;18726;44.732;10.550;2022-08-18T15:04:28;100570.53;;;28.15;100.00
32237;BME280;18726;44.732;10.550;2022-08-18T15:07:31;100559.06;;;28.13;100.00
32237;BME280;18726;44.732;10.550;2022-08-18T15:10:35;100545.09;;;28.13;100.00
32237;BME280;18726;44.732;10.550;2022-08-18T15:13:41;100551.59;;;28.19;100.00
32237;BME280;18726;44.732;10.550;2022-08-18T15:16:46;100546.78;;;28.20;100.00
32237;BME280;18726;44.732;10.550;2022-08-18T15:19:52;100548.38;;;28.21;100.00
32237;BME280;18726;44.732;10.550;2022-08-18T15:23:00;100541.44;;;27.98;100.00
32237;BME280;18726;44.732;10.550;2022-08-18T15:26:24;100544.53;;;28.00;100.00
32237;BME280;18726;44.732;10.550;2022-08-18T15:29:28;100527.00;;;28.00;100.00
32237;BME280;18726;44.732;10.550;2022-08-18T15:32:32;100520.81;;;27.96;100.00
32237;BME280;18726;44.732;10.550;2022-08-18T15:35:36;100521.59;;;27.96;100.00
32237;BME280;18726;44.732;10.550;2022-08-18T15:38:42;100525.00;;;27.91;100.00
32237;BME280;18726;44.732;10.550;2022-08-18T15:41:46;100516.31;;;27.89;100.00
32237;BME280;18726;44.732;10.550;2022-08-18T15:44:54;100527.66;;;27.85;100.00
32237;BME280;18726;44.732;10.550;2022-08-18T15:47:57;100535.53;;;27.96;100.00
32237;BME280;18726;44.732;10.550;2022-08-18T15:51:01;100539.88;;;27.97;100.00
32237;BME280;18726;44.732;10.550;2022-08-18T15:54:09;100561.00;;;27.80;100.00
32237;BME280;18726;44.732;10.550;2022-08-18T15:57:13;100549.88;;;27.71;100.00
32237;BME280;18726;44.732;10.550;2022-08-18T16:00:18;100558.53;;;27.73;100.00
32237;BME280;18726;44.732;10.550;2022-08-18T16:03:22;100545.22;;;27.68;100.00
32237;BME280;18726;44.732;10.550;2022-08-18T16:06:26;100546.13;;;27.74;100.00
32237;BME280;18726;44.732;10.550;2022-08-18T16:09:29;100549.53;;;27.78;100.00
32237;BME280;18726;44.732;10.550;2022-08-18T16:12:33;100558.53;;;27.73;100.00
32237;BME280;18726;44.732;10.550;2022-08-18T16:15:39;100569.41;;;27.62;100.00
32237;BME280;18726;44.732;10.550;2022-08-18T16:18:44;100554.34;;;27.50;100.00
32237;BME280;18726;44.732;10.550;2022-08-18T16:21:48;100570.34;;;27.40;100.00
32237;BME280;18726;44.732;10.550;2022-08-18T16:24:53;100559.63;;;27.30;100.00
32237;BME280;18726;44.732;10.550;2022-08-18T16:27:58;100550.78;;;27.22;100.00
32237;BME280;18726;44.732;10.550;2022-08-18T16:31:02;100547.69;;;27.11;100.00
32237;BME280;18726;44.732;10.550;2022-08-18T16:34:06;100539.00;;;27.09;100.00
32237;BME280;18726;44.732;10.550;2022-08-18T16:37:09;100513.59;;;27.07;100.00
32237;BME280;18726;44.732;10.550;2022-08-18T16:40:15;100481.84;;;27.13;100.00
32237;BME280;18726;44.732;10.550;2022-08-18T16:43:19;100450.53;;;27.18;100.00
32237;BME280;18726;44.732;10.550;2022-08-18T16:46:25;100434.25;;;27.26;100.00
32237;BME280;18726;44.732;10.550;2022-08-18T16:49:29;100400.16;;;27.31;100.00
32237;BME280;18726;44.732;10.550;2022-08-18T16:52:34;100342.50;;;27.37;100.00
32237;BME280;18726;44.732;10.550;2022-08-18T16:55:37;100316.00;;;27.33;100.00
32237;BME280;18726;44.732;10.550;2022-08-18T16:58:41;100340.81;;;27.21;100.00
32237;BME280;18726;44.732;10.550;2022-08-18T17:02:03;100351.81;;;27.16;100.00
32237;BME280;18726;44.732;10.550;2022-08-18T17:05:26;100374.47;;;27.09;100.00
32237;BME280;18726;44.732;10.550;2022-08-18T17:08:30;100449.47;;;26.98;100.00
32237;BME280;18726;44.732;10.550;2022-08-18T17:11:38;100473.75;;;26.79;100.00
32237;BME280;18726;44.732;10.550;2022-08-18T17:14:42;100479.00;;;26.18;100.00
32237;BME280;18726;44.732;10.550;2022-08-18T17:17:45;100462.78;;;26.26;100.00
32237;BME280;18726;44.732;10.550;2022-08-18T17:20:50;100469.31;;;26.32;100.00
32237;BME280;18726;44.732;10.550;2022-08-18T17:23:56;100481.25;;;26.42;100.00
32237;BME280;18726;44.732;10.550;2022-08-18T17:30:08;100542.72;;;26.56;100.00
32237;BME280;18726;44.732;10.550;2022-08-18T17:33:19;100516.41;;;26.57;100.00
32237;BME280;18726;44.732;10.550;2022-08-18T17:36:39;100487.44;;;26.37;100.00
32237;BME280;18726;44.732;10.550;2022-08-18T17:40:03;100492.31;;;26.23;100.00
32237;BME280;18726;44.732;10.550;2022-08-18T17:43:13;100514.19;;;26.03;100.00
32237;BME280;18726;44.732;10.550;2022-08-18T17:46:24;100543.69;;;25.70;100.00
32237;BME280;18726;44.732;10.550;2022-08-18T17:49:37;100537.31;;;25.47;100.00
32237;BME280;18726;44.732;10.550;2022-08-18T17:53:04;100502.69;;;25.48;100.00
32237;BME280;18726;44.732;10.550;2022-08-18T17:59:28;100469.94;;;25.65;100.00
32237;BME280;18726;44.732;10.550;2022-08-18T18:02:32;100466.41;;;25.74;100.00
32237;BME280;18726;44.732;10.550;2022-08-18T18:05:48;100467.63;;;25.73;100.00
32237;BME280;18726;44.732;10.550;2022-08-18T18:08:59;100455.41;;;25.70;100.00
32237;BME280;18726;44.732;10.550;2022-08-18T18:12:19;100445.66;;;25.66;100.00
32237;BME280;18726;44.732;10.550;2022-08-18T18:15:31;100429.53;;;25.61;100.00
32237;BME280;18726;44.732;10.550;2022-08-18T18:18:41;100427.34;;;25.55;100.00
32237;BME280;18726;44.732;10.550;2022-08-18T18:22:03;100419.09;;;25.21;100.00
32237;BME280;18726;44.732;10.550;2022-08-18T18:25:10;100440.75;;;25.04;100.00
32237;BME280;18726;44.732;10.550;2022-08-18T18:28:29;100461.09;;;25.01;100.00
32237;BME280;18726;44.732;10.550;2022-08-18T18:31:33;100442.09;;;25.00;100.00
32237;BME280;18726;44.732;10.550;2022-08-18T18:34:43;100433.44;;;24.98;100.00
32237;BME280;18726;44.732;10.550;2022-08-18T18:44:29;100462.84;;;24.73;100.00
32237;BME280;18726;44.732;10.550;2022-08-18T18:47:47;100474.53;;;24.55;100.00
32237;BME280;18726;44.732;10.550;2022-08-18T18:51:01;100473.47;;;24.40;100.00
32237;BME280;18726;44.732;10.550;2022-08-18T18:58:09;100454.47;;;24.39;100.00
32237;BME280;18726;44.732;10.550;2022-08-18T19:02:22;100423.47;;;24.40;100.00
32237;BME280;18726;44.732;10.550;2022-08-18T19:14:57;100465.34;;;24.46;100.00
32237;BME280;18726;44.732;10.550;2022-08-18T19:18:25;100481.13;;;24.49;100.00
32237;BME280;18726;44.732;10.550;2022-08-18T19:21:30;100498.22;;;24.35;100.00
32237;BME280;18726;44.732;10.550;2022-08-18T19:24:44;100501.09;;;24.18;100.00
32237;BME280;18726;44.732;10.550;2022-08-18T19:28:11;100473.69;;;23.95;100.00
32237;BME280;18726;44.732;10.550;2022-08-18T19:31:35;100441.81;;;23.87;100.00
32237;BME280;18726;44.732;10.550;2022-08-18T19:34:43;100454.78;;;23.90;100.00
32237;BME280;18726;44.732;10.550;2022-08-18T19:37:59;100447.03;;;23.85;100.00
32237;BME280;18726;44.732;10.550;2022-08-18T19:41:17;100449.91;;;23.81;100.00
32237;BME280;18726;44.732;10.550;2022-08-18T19:48:09;100465.56;;;23.88;100.00
32237;BME280;18726;44.732;10.550;2022-08-18T19:51:35;100478.22;;;23.89;100.00
32237;BME280;18726;44.732;10.550;2022-08-18T19:54:55;100495.53;;;23.93;100.00
32237;BME280;18726;44.732;10.550;2022-08-18T20:05:06;100539.00;;;23.83;100.00
32237;BME280;18726;44.732;10.550;2022-08-18T20:15:00;100559.78;;;23.34;100.00
32237;BME280;18726;44.732;10.550;2022-08-18T20:18:19;100559.53;;;23.28;100.00
32237;BME280;18726;44.732;10.550;2022-08-18T20:21:42;100572.38;;;23.22;100.00
32237;BME280;18726;44.732;10.550;2022-08-18T20:31:14;100570.63;;;23.12;100.00
32237;BME280;18726;44.732;10.550;2022-08-18T20:34:28;100575.66;;;23.17;100.00
32237;BME280;18726;44.732;10.550;2022-08-18T20:37:32;100539.63;;;23.17;100.00
32237;BME280;18726;44.732;10.550;2022-08-18T20:40:41;100512.59;;;23.21;100.00
32237;BME280;18726;44.732;10.550;2022-08-18T20:43:49;100530.59;;;23.29;100.00
32237;BME280;18726;44.732;10.550;2022-08-18T20:50:30;100473.41;;;23.35;100.00
32237;BME280;18726;44.732;10.550;2022-08-18T20:54:00;100459.91;;;23.37;100.00
32237;BME280;18726;44.732;10.550;2022-08-18T20:57:09;100463.19;;;23.32;100.00
32237;BME280;18726;44.732;10.550;2022-08-18T21:00:15;100500.66;;;23.24;100.00
32237;BME280;18726;44.732;10.550;2022-08-18T21:03:19;100526.28;;;23.12;100.00
32237;BME280;18726;44.732;10.550;2022-08-18T21:06:28;100519.41;;;23.04;100.00
32237;BME280;18726;44.732;10.550;2022-08-18T21:09:33;100496.94;;;23.14;100.00